Time;durP1;ratioP1;P1;durP2;ratioP2;P2;SDS_P1;SDS_P2;PMS_P1;PMS_P2;Temp;Humidity;BMP_temperature;BMP_pressure;BME280_temperature;BME280_humidity;BME280_pressure;Samples;Min_cycle;Max_cycle;Signal;HPM_P1;HPM_P2
2022/05/14 00:01:10;;;;;;;17.00;9.70;;;14.80;71.80;;;;;;4964601;28;46718;-63
2022/05/14 00:03:39;;;;;;;17.80;10.90;;;14.80;71.80;;;;;;4965037;28;46454;-63
2022/05/14 00:06:09;;;;;;;13.23;10.30;;;14.80;71.80;;;;;;4968297;28;46416;-63
2022/05/14 00:08:35;;;;;;;16.80;11.03;;;14.80;71.70;;;;;;4963234;28;46429;-64
2022/05/14 00:13:45;;;;;;;16.50;10.60;;;14.80;71.80;;;;;;4962884;28;46813;-63
2022/05/14 00:16:13;;;;;;;12.50;9.63;;;14.70;71.80;;;;;;4962981;28;46451;-62
2022/05/14 00:18:39;;;;;;;14.97;9.73;;;14.60;72.00;;;;;;4961228;28;46471;-63
2022/05/14 00:21:05;;;;;;;15.33;10.27;;;14.50;72.40;;;;;;4962380;28;46586;-62
2022/05/14 00:23:31;;;;;;;19.53;10.63;;;14.40;72.70;;;;;;4962937;28;46348;-63
2022/05/14 00:25:57;;;;;;;14.03;10.07;;;14.40;73.00;;;;;;4962560;28;45796;-63
2022/05/14 00:28:23;;;;;;;17.67;11.87;;;14.30;73.30;;;;;;4962867;28;46446;-63
2022/05/14 00:30:49;;;;;;;13.03;9.93;;;14.20;73.40;;;;;;4964817;28;46411;-62
2022/05/14 00:33:15;;;;;;;17.47;11.63;;;14.10;73.60;;;;;;4963122;28;46262;-63
2022/05/14 00:35:41;;;;;;;18.37;11.40;;;14.00;74.00;;;;;;4961975;28;46544;-63
2022/05/14 00:38:10;;;;;;;17.43;11.47;;;13.90;74.30;;;;;;4963365;28;45833;-63
2022/05/14 00:40:38;;;;;;;16.43;11.10;;;13.90;74.50;;;;;;4960814;28;46655;-63
2022/05/14 00:43:04;;;;;;;18.17;11.07;;;13.80;74.60;;;;;;4962508;28;47290;-63
2022/05/14 00:45:34;;;;;;;21.50;11.20;;;13.80;74.70;;;;;;4962894;28;45915;-63
2022/05/14 00:48:01;;;;;;;16.07;10.63;;;13.60;74.70;;;;;;4963680;28;46309;-62
2022/05/14 00:50:37;;;;;;;15.77;10.60;;;13.50;74.90;;;;;;4960356;28;46380;-63
2022/05/14 00:53:19;;;;;;;21.80;11.67;;;13.40;75.00;;;;;;4961632;28;46468;-62
2022/05/14 00:55:46;;;;;;;13.40;9.30;;;13.40;75.20;;;;;;4961481;28;46365;-63
2022/05/14 00:58:39;;;;;;;12.90;7.07;;;13.30;75.20;;;;;;4961261;28;46508;-63
2022/05/14 01:01:05;;;;;;;12.93;5.50;;;13.30;75.50;;;;;;4959716;28;46395;-63
2022/05/14 01:03:31;;;;;;;8.87;7.30;;;13.20;75.40;;;;;;4962556;28;46626;-63
2022/05/14 01:05:59;;;;;;;8.63;7.27;;;13.10;75.40;;;;;;4962239;28;46463;-62
2022/05/14 01:08:26;;;;;;;12.40;8.57;;;13.10;75.40;;;;;;4961755;28;46379;-62
2022/05/14 01:10:52;;;;;;;14.63;10.03;;;13.00;75.40;;;;;;4963469;28;46498;-63
2022/05/14 01:13:18;;;;;;;16.03;10.87;;;13.00;75.60;;;;;;4963673;28;46516;-63
2022/05/14 01:15:49;;;;;;;23.90;10.77;;;12.90;75.70;;;;;;4961916;28;46406;-62
2022/05/14 01:18:22;;;;;;;17.27;9.97;;;13.00;75.70;;;;;;4960458;28;46446;-63
2022/05/14 01:20:59;;;;;;;12.87;9.63;;;13.10;75.50;;;;;;4962604;28;46536;-63
2022/05/14 01:26:27;;;;;;;14.63;9.87;;;13.20;74.80;;;;;;4961339;28;47272;-62
2022/05/14 01:26:27;;;;;;;16.03;9.67;;;13.30;74.20;;;;;;4961808;28;46413;-63
2022/05/14 01:28:57;;;;;;;12.80;8.90;;;13.50;73.70;;;;;;4961493;28;46423;-63
2022/05/14 01:31:23;;;;;;;13.07;10.17;;;13.60;73.40;;;;;;4961491;28;46699;-63
2022/05/14 01:33:49;;;;;;;12.80;9.60;;;13.70;73.10;;;;;;4961716;28;46416;-63
2022/05/14 01:36:14;;;;;;;17.43;9.53;;;13.70;72.90;;;;;;4961803;28;46383;-63
2022/05/14 01:38:40;;;;;;;15.50;10.50;;;13.80;72.90;;;;;;4961758;28;46643;-63
2022/05/14 01:41:06;;;;;;;16.40;9.40;;;13.80;72.80;;;;;;4961159;28;46910;-63
2022/05/14 01:43:32;;;;;;;14.77;9.53;;;13.90;72.90;;;;;;4961186;28;47133;-62
2022/05/14 01:45:57;;;;;;;13.23;9.87;;;13.90;72.60;;;;;;4961863;28;46182;-63
2022/05/14 01:48:23;;;;;;;20.93;9.33;;;14.00;72.70;;;;;;4960504;28;46375;-63
2022/05/14 01:50:49;;;;;;;14.33;10.03;;;14.00;72.50;;;;;;4960787;28;46503;-63
2022/05/14 01:53:14;;;;;;;15.80;8.77;;;14.00;72.70;;;;;;4959778;28;48499;-63
2022/05/14 01:55:40;;;;;;;14.60;9.00;;;13.90;72.90;;;;;;4960684;28;45840;-63
2022/05/14 01:58:36;;;;;;;15.40;8.90;;;13.80;73.10;;;;;;4954543;28;46412;-63
2022/05/14 02:00:52;;;;;;;16.10;9.40;;;13.70;73.50;;;;;;4957829;28;46428;-64
2022/05/14 02:03:18;;;;;;;13.93;8.80;;;13.60;73.90;;;;;;4958491;28;47213;-63
2022/05/14 02:05:43;;;;;;;13.13;8.87;;;13.40;74.40;;;;;;4959102;28;46379;-63
2022/05/14 02:08:09;;;;;;;10.27;8.23;;;13.30;74.70;;;;;;4951420;28;46673;-63
2022/05/14 02:10:34;;;;;;;15.37;9.00;;;13.20;74.90;;;;;;4953543;28;46407;-62
2022/05/14 02:13:00;;;;;;;14.20;9.30;;;13.20;74.90;;;;;;4956426;28;46482;-63
2022/05/14 02:15:26;;;;;;;14.90;9.23;;;13.20;74.70;;;;;;4951882;28;46538;-63
2022/05/14 02:17:51;;;;;;;13.60;9.20;;;13.20;74.60;;;;;;4955940;28;46503;-62
2022/05/14 02:20:17;;;;;;;11.83;8.53;;;13.20;74.50;;;;;;4954798;28;46415;-63
2022/05/14 02:22:43;;;;;;;11.67;8.90;;;13.20;74.20;;;;;;4958118;28;47335;-63
2022/05/14 02:25:10;;;;;;;14.13;9.40;;;13.20;74.30;;;;;;4956238;28;46372;-62
2022/05/14 02:27:36;;;;;;;12.90;8.63;;;13.10;74.30;;;;;;4958842;28;45945;-63
2022/05/14 02:30:02;;;;;;;12.37;6.73;;;13.00;74.50;;;;;;4954147;28;46642;-63
2022/05/14 02:32:28;;;;;;;8.30;6.50;;;12.90;74.70;;;;;;4954274;28;46425;-62
2022/05/14 02:34:54;;;;;;;11.07;6.40;;;12.80;76.30;;;;;;4955709;28;46408;-62
2022/05/14 02:37:24;;;;;;;11.97;5.50;;;12.70;75.40;;;;;;4955394;28;46509;-63
2022/05/14 02:39:50;;;;;;;12.20;6.60;;;12.50;75.60;;;;;;4953750;28;46636;-63
2022/05/14 02:42:16;;;;;;;9.43;6.30;;;12.40;76.00;;;;;;4955318;28;47345;-63
2022/05/14 02:44:42;;;;;;;14.17;6.17;;;12.30;76.40;;;;;;4957311;28;45838;-63
2022/05/14 02:47:08;;;;;;;8.93;6.20;;;12.20;76.50;;;;;;4955020;28;45852;-63
2022/05/14 02:49:35;;;;;;;10.63;6.40;;;12.00;76.70;;;;;;4956447;28;46347;-62
2022/05/14 02:52:00;;;;;;;9.93;6.67;;;12.00;76.70;;;;;;4956923;28;47269;-63
2022/05/14 02:54:26;;;;;;;13.43;6.43;;;11.90;76.70;;;;;;4956982;28;46434;-62
2022/05/14 02:56:52;;;;;;;10.27;7.70;;;11.90;76.40;;;;;;4960115;28;46553;-63
2022/05/14 02:59:18;;;;;;;9.83;6.23;;;12.00;76.20;;;;;;4957413;28;46618;-63
2022/05/14 03:01:50;;;;;;;9.70;6.87;;;12.10;75.60;;;;;;4954938;28;46726;-62
2022/05/14 03:04:17;;;;;;;13.70;7.30;;;12.20;75.30;;;;;;4956888;28;46391;-62
2022/05/14 03:06:43;;;;;;;8.47;5.80;;;12.20;75.00;;;;;;4955190;28;46434;-62
2022/05/14 03:09:09;;;;;;;9.23;7.00;;;12.30;75.00;;;;;;4952471;28;46562;-62
2022/05/14 03:11:35;;;;;;;12.27;7.80;;;12.30;74.90;;;;;;4958728;28;46574;-62
2022/05/14 03:14:00;;;;;;;11.27;7.20;;;12.30;74.90;;;;;;4963162;28;46470;-63
2022/05/14 03:16:26;;;;;;;10.80;6.60;;;12.30;74.70;;;;;;4963733;28;45894;-62
2022/05/14 03:18:51;;;;;;;10.27;6.93;;;12.40;74.70;;;;;;4963680;28;46300;-63
2022/05/14 03:21:17;;;;;;;11.00;6.80;;;12.40;74.50;;;;;;4964006;28;47316;-62
2022/05/14 03:23:43;;;;;;;13.80;7.00;;;12.40;74.40;;;;;;4963613;28;46379;-66
2022/05/14 03:26:08;;;;;;;14.80;6.53;;;12.50;74.30;;;;;;4964298;28;46551;-64
2022/05/14 03:28:34;;;;;;;10.83;6.27;;;12.50;74.10;;;;;;4962946;28;46539;-64
2022/05/14 03:30:59;;;;;;;8.33;6.60;;;12.50;74.00;;;;;;4963997;28;46415;-62
2022/05/14 03:33:25;;;;;;;13.10;7.20;;;12.50;74.00;;;;;;4963031;28;46768;-63
2022/05/14 03:35:50;;;;;;;10.20;7.60;;;12.50;74.10;;;;;;4962077;28;45854;-63
2022/05/14 03:38:16;;;;;;;10.97;7.00;;;12.50;74.20;;;;;;4963834;28;46427;-63
2022/05/14 03:40:42;;;;;;;11.83;6.97;;;12.50;73.90;;;;;;4963211;28;46434;-63
2022/05/14 03:43:07;;;;;;;12.80;7.63;;;12.60;73.90;;;;;;4963623;28;45774;-63
2022/05/14 03:45:33;;;;;;;10.00;6.83;;;12.60;73.80;;;;;;4963870;28;46312;-63
2022/05/14 03:47:58;;;;;;;9.20;6.80;;;12.60;73.80;;;;;;4963282;28;45867;-63
2022/05/14 03:50:24;;;;;;;14.30;7.90;;;12.60;73.80;;;;;;4962115;28;46982;-63
2022/05/14 03:52:50;;;;;;;10.20;7.07;;;12.60;73.80;;;;;;4962957;28;46329;-63
2022/05/14 03:55:15;;;;;;;9.40;6.20;;;12.60;73.80;;;;;;4963385;28;46435;-63
2022/05/14 03:57:41;;;;;;;8.50;6.60;;;12.60;73.80;;;;;;4964082;28;46463;-62
2022/05/14 04:00:08;;;;;;;12.43;6.93;;;12.60;73.90;;;;;;4962626;28;47172;-63
2022/05/14 04:02:34;;;;;;;11.70;6.80;;;12.70;73.90;;;;;;4962362;28;46243;-63
2022/05/14 04:05:00;;;;;;;21.33;7.43;;;12.70;73.80;;;;;;4963942;28;46330;-63
2022/05/14 04:07:25;;;;;;;13.00;7.40;;;12.70;73.70;;;;;;4962841;28;46434;-63
2022/05/14 04:09:51;;;;;;;12.23;6.90;;;12.80;73.60;;;;;;4963121;28;46678;-63
2022/05/14 04:12:17;;;;;;;9.30;7.07;;;12.80;73.50;;;;;;4962145;28;46356;-63
2022/05/14 04:14:43;;;;;;;11.20;7.13;;;12.80;73.60;;;;;;4963725;28;46654;-63
2022/05/14 04:17:09;;;;;;;17.73;8.53;;;12.90;73.60;;;;;;4963331;28;46549;-63
2022/05/14 04:19:34;;;;;;;14.43;6.83;;;13.00;73.40;;;;;;4962670;28;46027;-62
2022/05/14 04:22:00;;;;;;;11.73;7.17;;;13.10;73.30;;;;;;4963887;28;46276;-63
2022/05/14 04:24:27;;;;;;;10.47;7.50;;;13.10;73.10;;;;;;4963082;28;46536;-63
2022/05/14 04:26:53;;;;;;;12.37;8.03;;;13.20;73.10;;;;;;4962911;28;46540;-63
2022/05/14 04:29:19;;;;;;;10.70;8.07;;;13.30;72.90;;;;;;4962759;28;46937;-63
2022/05/14 04:31:45;;;;;;;16.20;8.50;;;13.40;72.90;;;;;;4963163;28;46372;-63
2022/05/14 04:34:11;;;;;;;9.77;5.13;;;13.40;72.70;;;;;;4962718;28;46834;-63
2022/05/14 04:36:36;;;;;;;9.00;6.30;;;13.50;72.50;;;;;;4963688;28;46718;-63
2022/05/14 04:39:03;;;;;;;15.33;6.17;;;13.50;72.30;;;;;;4962587;28;47169;-63
2022/05/14 04:41:30;;;;;;;6.00;4.80;;;13.60;72.10;;;;;;4962889;28;45822;-63
2022/05/14 04:43:59;;;;;;;9.93;4.70;;;13.70;72.00;;;;;;4962895;28;46739;-63
2022/05/14 04:46:25;;;;;;;11.60;5.70;;;13.80;71.90;;;;;;4963280;28;46308;-61
2022/05/14 04:48:51;;;;;;;7.63;5.67;;;14.00;71.80;;;;;;4962479;28;46365;-63
2022/05/14 04:51:16;;;;;;;10.40;5.20;;;14.20;71.50;;;;;;4962609;28;46073;-63
2022/05/14 04:53:42;;;;;;;9.73;5.30;;;14.50;71.30;;;;;;4962875;28;46377;-63
2022/05/14 04:56:07;;;;;;;7.53;4.47;;;15.00;71.20;;;;;;4963472;28;46500;-63
2022/05/14 04:58:33;;;;;;;13.93;4.53;;;15.40;70.80;;;;;;4960037;28;46827;-63
2022/05/14 05:00:59;;;;;;;7.23;4.30;;;15.70;69.90;;;;;;4961404;28;46363;-63
2022/05/14 05:03:27;;;;;;;5.67;3.87;;;15.80;69.80;;;;;;4962805;28;46438;-63
2022/05/14 05:05:55;;;;;;;9.67;4.13;;;15.70;69.70;;;;;;4959607;28;46690;-63
2022/05/14 05:08:23;;;;;;;11.80;4.57;;;15.50;69.80;;;;;;4961355;28;46376;-62
2022/05/14 05:10:49;;;;;;;7.67;4.50;;;15.50;69.60;;;;;;4962449;28;46467;-63
2022/05/14 05:13:18;;;;;;;13.00;4.47;;;15.40;69.50;;;;;;4962819;28;46354;-63
2022/05/14 05:15:44;;;;;;;8.00;4.67;;;15.40;69.40;;;;;;4962675;28;46399;-63
2022/05/14 05:18:10;;;;;;;7.43;3.93;;;15.60;69.60;;;;;;4962055;28;46668;-63
2022/05/14 05:20:38;;;;;;;9.73;4.37;;;16.20;68.20;;;;;;4962218;28;46386;-63
2022/05/14 05:23:05;;;;;;;6.10;4.30;;;16.60;67.10;;;;;;4963106;28;46427;-63
2022/05/14 05:25:31;;;;;;;5.50;4.10;;;17.20;66.00;;;;;;4961376;28;46553;-63
2022/05/14 05:27:57;;;;;;;6.30;4.13;;;17.70;64.40;;;;;;4963713;28;46549;-63
2022/05/14 05:30:23;;;;;;;11.40;5.53;;;18.40;63.00;;;;;;4961855;28;46392;-63
2022/05/14 05:32:49;;;;;;;7.73;4.50;;;18.80;61.80;;;;;;4962211;28;46525;-62
2022/05/14 05:35:14;;;;;;;7.23;4.50;;;19.40;60.20;;;;;;4960533;28;46395;-62
2022/05/14 05:37:40;;;;;;;7.73;4.70;;;19.30;60.10;;;;;;4961823;28;46918;-63
2022/05/14 05:40:06;;;;;;;10.00;5.47;;;19.40;60.20;;;;;;4961775;28;46667;-63
2022/05/14 05:42:32;;;;;;;11.03;5.57;;;19.30;59.10;;;;;;4960911;28;46415;-63
2022/05/14 05:44:58;;;;;;;9.50;4.70;;;19.20;59.40;;;;;;4961177;28;46451;-63
2022/05/14 05:47:24;;;;;;;11.60;4.50;;;20.50;56.70;;;;;;4961090;28;46392;-61
2022/05/14 05:49:50;;;;;;;6.70;4.00;;;21.30;55.10;;;;;;4961188;28;46334;-62
2022/05/14 05:52:16;;;;;;;10.83;4.70;;;22.40;52.60;;;;;;4961699;28;46364;-62
2022/05/14 05:57:34;;;;;;;9.30;4.47;;;23.80;48.60;;;;;;4959398;28;46484;-63
2022/05/14 06:00:00;;;;;;;10.33;4.40;;;24.00;47.60;;;;;;4960392;28;46429;-63
2022/05/14 06:02:26;;;;;;;12.93;4.43;;;23.70;47.90;;;;;;4961570;28;46419;-64
2022/05/14 06:04:51;;;;;;;12.33;4.73;;;23.40;48.70;;;;;;4961160;28;46357;-63
2022/05/14 06:07:18;;;;;;;10.93;4.67;;;23.70;46.80;;;;;;4960831;28;46376;-63
2022/05/14 06:09:44;;;;;;;7.03;3.80;;;23.60;46.50;;;;;;4960186;28;46625;-63
2022/05/14 06:12:10;;;;;;;8.20;4.27;;;23.80;45.30;;;;;;4960661;28;46360;-63
2022/05/14 06:14:36;;;;;;;5.67;3.63;;;24.00;43.80;;;;;;4961638;28;45999;-63
2022/05/14 06:17:01;;;;;;;10.40;4.07;;;23.70;45.40;;;;;;4962145;28;46505;-63
2022/05/14 06:19:27;;;;;;;8.20;3.57;;;23.10;48.20;;;;;;4960714;28;46390;-62
2022/05/14 06:21:53;;;;;;;8.07;4.00;;;22.60;50.00;;;;;;4959862;28;46416;-63
2022/05/14 06:24:18;;;;;;;6.83;3.90;;;22.40;49.90;;;;;;4960751;28;46390;-62
2022/05/14 06:26:44;;;;;;;7.87;3.63;;;22.60;48.50;;;;;;4958627;28;47011;-63
2022/05/14 06:29:10;;;;;;;7.73;3.60;;;23.30;43.80;;;;;;4958688;28;46427;-63
2022/05/14 06:31:36;;;;;;;13.83;4.63;;;23.30;42.70;;;;;;4960222;28;46479;-61
2022/05/14 06:34:02;;;;;;;10.03;4.53;;;23.60;41.90;;;;;;4960890;28;46456;-63
2022/05/14 06:36:27;;;;;;;8.50;3.80;;;23.40;42.60;;;;;;4960163;28;46285;-62
2022/05/14 06:38:53;;;;;;;10.97;4.40;;;23.10;44.20;;;;;;4959306;28;46367;-62
2022/05/14 06:41:19;;;;;;;10.33;4.10;;;22.70;45.20;;;;;;4961881;28;46292;-62
2022/05/14 06:43:44;;;;;;;8.10;4.50;;;22.30;46.70;;;;;;4961985;28;46391;-62
2022/05/14 06:46:10;;;;;;;7.87;4.03;;;22.10;47.80;;;;;;4962095;28;46030;-62
2022/05/14 06:48:36;;;;;;;7.83;3.87;;;21.90;48.00;;;;;;4963702;28;46425;-62
2022/05/14 06:51:05;;;;;;;6.47;4.57;;;21.90;47.20;;;;;;4965191;28;46651;-62
2022/05/14 06:53:36;;;;;;;7.67;4.37;;;21.70;46.90;;;;;;4964244;28;46447;-62
2022/05/14 06:56:02;;;;;;;8.90;3.97;;;21.60;46.90;;;;;;4961307;28;47711;-62
2022/05/14 06:58:32;;;;;;;7.40;3.93;;;21.50;46.80;;;;;;4961599;28;46418;-63
2022/05/14 07:00:59;;;;;;;8.07;3.97;;;21.50;46.40;;;;;;4965003;28;46303;-62
2022/05/14 07:08:54;;;;;;;14.80;4.10;;;21.70;44.50;;;;;;4964225;28;46315;-62
2022/05/14 07:11:20;;;;;;;7.77;3.60;;;21.60;43.80;;;;;;4963768;28;46426;-62
2022/05/14 07:13:46;;;;;;;8.83;3.70;;;21.60;43.00;;;;;;4964553;28;46578;-62
2022/05/14 07:16:12;;;;;;;8.43;3.90;;;21.60;42.20;;;;;;4963741;28;47244;-62
2022/05/14 07:18:37;;;;;;;7.60;3.37;;;21.50;41.30;;;;;;4963861;28;46742;-63
2022/05/14 07:21:03;;;;;;;8.87;3.13;;;21.50;41.10;;;;;;4963909;28;46741;-62
2022/05/14 07:23:29;;;;;;;6.73;3.37;;;21.50;41.10;;;;;;4964265;28;46410;-62
2022/05/14 07:26:00;;;;;;;7.63;2.47;;;21.50;40.90;;;;;;4963187;28;46400;-62
2022/05/14 07:28:26;;;;;;;4.50;2.27;;;21.50;40.30;;;;;;4963850;28;46405;-62
2022/05/14 07:30:51;;;;;;;13.47;3.10;;;21.50;39.80;;;;;;4962477;28;46521;-63
2022/05/14 07:33:17;;;;;;;9.10;2.30;;;21.50;40.10;;;;;;4963950;28;46558;-62
2022/05/14 07:35:43;;;;;;;6.13;2.10;;;21.60;38.30;;;;;;4962688;28;47230;-62
2022/05/14 07:38:09;;;;;;;6.00;1.73;;;21.60;37.20;;;;;;4963133;28;46428;-63
2022/05/14 07:40:37;;;;;;;5.90;1.90;;;21.50;35.50;;;;;;4963725;28;46607;-62
2022/05/14 07:43:10;;;;;;;6.13;1.70;;;21.40;34.30;;;;;;4964488;28;46502;-62
2022/05/14 07:45:43;;;;;;;4.93;1.77;;;21.50;33.30;;;;;;4963696;28;46547;-61
2022/05/14 07:48:34;;;;;;;4.63;1.63;;;21.60;32.50;;;;;;4962243;28;46417;-62
2022/05/14 07:51:03;;;;;;;3.80;1.57;;;21.80;32.90;;;;;;4960587;28;46389;-62
2022/05/14 07:53:32;;;;;;;6.73;1.70;;;21.70;32.40;;;;;;4963946;28;46415;-62
2022/05/14 07:55:59;;;;;;;5.20;1.50;;;21.80;32.00;;;;;;4962484;28;46337;-61
2022/05/14 07:58:24;;;;;;;8.63;1.50;;;21.80;31.10;;;;;;4962441;28;46600;-60
2022/05/14 08:00:51;;;;;;;8.70;1.60;;;21.80;29.80;;;;;;4963258;28;46215;-62
2022/05/14 08:03:17;;;;;;;6.70;1.77;;;21.60;28.60;;;;;;4963001;28;46617;-62
2022/05/14 08:05:43;;;;;;;6.03;1.80;;;21.40;27.90;;;;;;4959573;28;46438;-62
2022/05/14 08:08:09;;;;;;;7.87;1.80;;;21.30;27.90;;;;;;4959266;28;46463;-63
2022/05/14 08:10:35;;;;;;;6.47;1.70;;;21.30;27.50;;;;;;4963307;28;46313;-62
2022/05/14 08:13:01;;;;;;;4.40;1.50;;;21.30;27.20;;;;;;4966563;28;46587;-59
2022/05/14 08:15:27;;;;;;;7.90;1.67;;;21.30;27.30;;;;;;4962885;28;46698;-62
2022/05/14 08:17:54;;;;;;;12.27;2.07;;;21.60;27.40;;;;;;4961978;28;46339;-62
2022/05/14 08:20:20;;;;;;;7.27;1.60;;;21.80;27.10;;;;;;4963020;28;46325;-63
2022/05/14 08:25:30;;;;;;;6.37;1.73;;;21.90;26.50;;;;;;4963364;28;46727;-62
2022/05/14 08:27:56;;;;;;;5.87;1.73;;;22.00;26.80;;;;;;4963044;28;46280;-63
2022/05/14 08:30:25;;;;;;;6.03;1.60;;;22.10;26.40;;;;;;4963118;28;46418;-62
2022/05/14 08:32:51;;;;;;;6.67;1.80;;;22.20;26.40;;;;;;4963303;28;46631;-62
2022/05/14 08:35:18;;;;;;;8.70;1.67;;;22.30;25.80;;;;;;4962521;28;46976;-62
2022/05/14 08:37:44;;;;;;;5.63;1.80;;;22.40;25.70;;;;;;4958491;28;46309;-62
2022/05/14 08:40:30;;;;;;;10.00;1.83;;;22.40;25.40;;;;;;4962539;28;46368;-62
2022/05/14 08:43:01;;;;;;;11.00;1.63;;;22.40;25.10;;;;;;4963481;28;46385;-62
2022/05/14 08:45:29;;;;;;;3.60;1.50;;;22.60;25.10;;;;;;4960188;28;46490;-62
2022/05/14 08:47:58;;;;;;;6.80;1.53;;;22.60;25.40;;;;;;4961635;28;46887;-62
2022/05/14 08:50:29;;;;;;;8.83;1.80;;;22.60;25.00;;;;;;4959493;28;46273;-61
2022/05/14 08:53:00;;;;;;;7.23;1.67;;;22.60;24.90;;;;;;4963374;28;46271;-61
2022/05/14 08:55:40;;;;;;;4.87;1.67;;;22.60;24.90;;;;;;4959337;28;47079;-61
2022/05/14 08:58:19;;;;;;;5.30;1.83;;;22.70;24.40;;;;;;4962365;28;46436;-61
2022/05/14 09:00:44;;;;;;;3.23;1.30;;;22.60;24.30;;;;;;4962174;28;46554;-61
2022/05/14 09:03:10;;;;;;;4.50;1.37;;;22.70;24.30;;;;;;4962960;28;46665;-61
2022/05/14 09:05:37;;;;;;;4.70;1.70;;;22.70;24.30;;;;;;4960366;28;47344;-62
2022/05/14 09:08:04;;;;;;;7.30;2.10;;;22.70;24.30;;;;;;4961736;28;46321;-61
2022/05/14 09:10:34;;;;;;;4.37;1.67;;;22.50;24.20;;;;;;4960227;28;46305;-61
2022/05/14 09:13:01;;;;;;;3.10;1.40;;;22.10;24.60;;;;;;4961774;28;46553;-61
2022/05/14 09:15:32;;;;;;;4.63;1.80;;;22.30;24.70;;;;;;4962302;28;46467;-61
2022/05/14 09:18:10;;;;;;;7.30;1.70;;;22.50;24.80;;;;;;4962507;28;46369;-62
2022/05/14 09:20:49;;;;;;;12.87;3.90;;;22.70;24.30;;;;;;4961752;28;46570;-61
2022/05/14 09:23:32;;;;;;;4.93;1.60;;;22.70;24.40;;;;;;4962156;28;46450;-62
2022/05/14 09:26:08;;;;;;;7.07;1.90;;;22.70;24.30;;;;;;4961930;28;47082;-61
2022/05/14 09:28:46;;;;;;;5.53;1.60;;;22.70;24.30;;;;;;4961949;28;46375;-61
2022/05/14 09:31:36;;;;;;;6.37;1.93;;;22.70;24.30;;;;;;5087758;27;46336;-63
2022/05/14 09:34:17;;;;;;;5.13;1.63;;;22.60;24.30;;;;;;5085481;27;46441;-62
2022/05/14 09:36:45;;;;;;;5.20;1.80;;;22.70;24.40;;;;;;5082511;27;46589;-62
2022/05/14 09:39:22;;;;;;;6.93;1.90;;;22.80;25.00;;;;;;5065248;27;46656;-63
2022/05/14 09:41:56;;;;;;;6.07;1.57;;;22.80;25.50;;;;;;5072612;27;46397;-62
2022/05/14 09:44:43;;;;;;;5.87;1.70;;;22.80;25.80;;;;;;5073118;27;46478;-62
2022/05/14 09:47:10;;;;;;;11.60;1.80;;;22.80;26.00;;;;;;5075959;27;46416;-62
2022/05/14 09:49:41;;;;;;;8.00;2.13;;;22.90;26.00;;;;;;5081103;27;46455;-62
2022/05/14 09:52:11;;;;;;;4.60;1.80;;;23.00;26.00;;;;;;5073663;27;46485;-62
2022/05/14 09:54:45;;;;;;;4.90;1.87;;;23.00;25.70;;;;;;5081698;27;46792;-62
2022/05/14 09:57:55;;;;;;;7.40;1.90;;;23.10;25.30;;;;;;5078392;27;46448;-62
2022/05/14 10:00:47;;;;;;;8.17;2.40;;;22.90;25.20;;;;;;5073620;28;46544;-62
2022/05/14 10:03:35;;;;;;;4.37;2.00;;;23.00;24.80;;;;;;5073864;28;46419;-62
2022/05/14 10:06:18;;;;;;;4.67;1.60;;;23.20;24.70;;;;;;5080149;27;46363;-61
2022/05/14 10:08:59;;;;;;;3.70;1.90;;;23.30;24.80;;;;;;5091230;27;46340;-62
2022/05/14 10:11:46;;;;;;;8.50;2.00;;;23.30;24.80;;;;;;5082645;27;46435;-62
2022/05/14 10:14:32;;;;;;;4.53;1.87;;;23.30;24.80;;;;;;5089837;27;47373;-61
2022/05/14 10:17:03;;;;;;;5.90;2.30;;;23.20;24.70;;;;;;5080160;27;46335;-61
2022/05/14 10:19:47;;;;;;;7.13;1.97;;;23.10;24.60;;;;;;5073689;27;45795;-61
2022/05/14 10:22:20;;;;;;;10.80;1.90;;;23.20;24.70;;;;;;5077428;27;46704;-63
2022/05/14 10:28:01;;;;;;;5.13;2.07;;;23.50;25.20;;;;;;5090917;27;46435;-61
2022/05/14 10:30:54;;;;;;;5.47;2.47;;;23.40;25.50;;;;;;5080818;27;46301;-62
2022/05/14 10:33:24;;;;;;;5.60;1.97;;;23.30;25.40;;;;;;5089038;27;46342;-60
2022/05/14 10:35:57;;;;;;;7.13;2.30;;;23.30;25.20;;;;;;5078673;27;46363;-61
2022/05/14 10:38:34;;;;;;;4.77;1.93;;;23.50;25.30;;;;;;5080106;27;46397;-61
2022/05/14 10:41:05;;;;;;;7.50;2.30;;;23.60;25.00;;;;;;5082525;27;46669;-62
2022/05/14 10:43:43;;;;;;;8.27;2.43;;;23.40;24.80;;;;;;5070115;28;46483;-62
2022/05/14 10:46:18;;;;;;;6.40;2.20;;;23.20;24.70;;;;;;5064121;28;47351;-62
2022/05/14 10:48:49;;;;;;;7.83;2.30;;;23.40;24.80;;;;;;5069237;28;46823;-62
2022/05/14 10:51:28;;;;;;;14.03;2.60;;;23.40;24.80;;;;;;5071747;28;46415;-63
2022/05/14 10:53:55;;;;;;;5.20;2.00;;;23.40;24.80;;;;;;5061661;28;46429;-63
2022/05/14 10:56:37;;;;;;;7.70;2.50;;;23.60;25.00;;;;;;5069348;27;47113;-62
2022/05/14 10:59:04;;;;;;;6.60;2.47;;;23.60;25.00;;;;;;5075130;28;45773;-64
2022/05/14 11:01:30;;;;;;;7.63;2.37;;;23.50;25.50;;;;;;5069621;28;46358;-63
2022/05/14 11:04:14;;;;;;;7.13;2.83;;;23.50;25.10;;;;;;5063562;28;46362;-63
2022/05/14 11:06:58;;;;;;;10.20;2.67;;;23.40;26.00;;;;;;5065265;28;47126;-62
2022/05/14 11:09:49;;;;;;;5.80;2.40;;;23.40;25.90;;;;;;5063354;28;46398;-62
2022/05/14 11:12:31;;;;;;;7.70;2.10;;;23.40;25.60;;;;;;5061491;28;46396;-62
2022/05/14 11:14:59;;;;;;;6.97;2.30;;;23.30;25.70;;;;;;5066204;28;46408;-62
2022/05/14 11:17:33;;;;;;;6.37;2.33;;;23.30;25.40;;;;;;5067559;28;47058;-62
2022/05/14 11:20:02;;;;;;;6.57;2.47;;;23.30;25.20;;;;;;5072382;28;46485;-62
2022/05/14 11:22:33;;;;;;;6.93;2.53;;;23.30;24.80;;;;;;5071543;27;46429;-62
2022/05/14 11:25:16;;;;;;;8.13;2.63;;;22.90;25.00;;;;;;5076497;28;46241;-62
2022/05/14 11:28:04;;;;;;;10.00;2.47;;;22.90;25.00;;;;;;5072101;28;46625;-62
2022/05/14 11:30:40;;;;;;;5.40;2.00;;;23.10;24.70;;;;;;5073793;28;46560;-62
2022/05/14 11:33:20;;;;;;;7.37;2.20;;;23.10;24.60;;;;;;5069315;28;46458;-61
2022/05/14 11:35:48;;;;;;;10.87;2.40;;;23.00;24.50;;;;;;5066070;28;46461;-62
2022/05/14 11:38:35;;;;;;;9.57;2.50;;;22.80;24.40;;;;;;5073064;28;46493;-62
2022/05/14 11:41:10;;;;;;;7.53;2.63;;;22.80;24.40;;;;;;5063055;28;46906;-62
2022/05/14 11:43:42;;;;;;;7.80;2.90;;;22.90;25.10;;;;;;5070636;28;46417;-62
2022/05/14 11:46:48;;;;;;;5.30;2.20;;;23.10;25.70;;;;;;5064997;28;46373;-62
2022/05/14 11:49:35;;;;;;;5.80;2.47;;;23.20;24.70;;;;;;5069547;28;46426;-62
2022/05/14 11:52:03;;;;;;;7.90;2.17;;;23.20;25.90;;;;;;5062599;28;46453;-62
2022/05/14 11:54:36;;;;;;;5.40;2.50;;;23.20;26.00;;;;;;5060087;28;46314;-62
2022/05/14 11:57:26;;;;;;;6.03;2.50;;;23.50;26.00;;;;;;5063805;28;46456;-62
2022/05/14 12:00:08;;;;;;;5.63;2.40;;;23.70;25.50;;;;;;5064486;28;46932;-62
2022/05/14 12:02:44;;;;;;;7.63;2.10;;;23.90;25.60;;;;;;5063005;28;46454;-62
2022/05/14 12:05:43;;;;;;;8.90;2.00;;;24.00;26.10;;;;;;5055358;28;46039;-62
2022/05/14 12:08:40;;;;;;;7.50;2.33;;;23.80;25.10;;;;;;5058624;28;46520;-62
2022/05/14 12:11:23;;;;;;;6.90;2.20;;;23.60;25.00;;;;;;5054435;28;46129;-63
2022/05/14 12:14:07;;;;;;;7.03;2.50;;;23.50;24.90;;;;;;5063208;28;46517;-61
2022/05/14 12:16:53;;;;;;;8.07;2.80;;;23.40;24.80;;;;;;5056644;28;46351;-62
2022/05/14 12:19:27;;;;;;;7.50;2.50;;;23.40;25.30;;;;;;5047709;28;46255;-62
2022/05/14 12:21:57;;;;;;;5.30;2.33;;;23.70;25.90;;;;;;5056159;28;47165;-62
2022/05/14 12:24:27;;;;;;;7.67;2.47;;;23.80;25.10;;;;;;5053404;27;46416;-62
2022/05/14 12:26:53;;;;;;;8.63;2.67;;;23.90;25.20;;;;;;5060480;28;46223;-62
2022/05/14 12:29:26;;;;;;;5.23;2.17;;;24.00;25.30;;;;;;5071433;28;46376;-63
2022/05/14 12:34:51;;;;;;;6.20;2.70;;;23.90;25.20;;;;;;5072169;28;45839;-63
2022/05/14 12:37:19;;;;;;;9.20;2.50;;;23.90;25.20;;;;;;5073784;28;45820;-61
2022/05/14 12:39:47;;;;;;;5.23;2.47;;;23.60;24.20;;;;;;5067314;28;46394;-61
2022/05/14 12:42:13;;;;;;;10.33;2.30;;;23.40;24.60;;;;;;5063870;28;46990;-61
2022/05/14 12:44:45;;;;;;;10.67;3.07;;;23.50;24.90;;;;;;5063180;28;46529;-61
2022/05/14 12:47:24;;;;;;;11.07;2.10;;;23.50;24.90;;;;;;5069561;28;46472;-62
2022/05/14 12:49:50;;;;;;;7.00;3.00;;;23.50;24.90;;;;;;5073602;28;46393;-62
2022/05/14 12:52:28;;;;;;;7.57;2.80;;;23.50;25.10;;;;;;5074606;27;46411;-62
2022/05/14 12:55:13;;;;;;;10.33;2.73;;;23.50;25.70;;;;;;5067754;28;46520;-61
2022/05/14 12:57:43;;;;;;;7.60;2.70;;;23.60;25.00;;;;;;5070718;28;46469;-61
2022/05/14 13:00:10;;;;;;;6.17;2.40;;;23.40;25.20;;;;;;5066719;28;46594;-61
2022/05/14 13:02:41;;;;;;;7.90;2.30;;;23.40;25.80;;;;;;5061231;28;46762;-61
2022/05/14 13:05:32;;;;;;;11.10;2.70;;;23.40;24.90;;;;;;5071424;28;46443;-61
2022/05/14 13:08:06;;;;;;;6.77;2.67;;;23.50;24.90;;;;;;5073912;28;46498;-61
2022/05/14 13:10:32;;;;;;;6.53;2.70;;;23.50;24.90;;;;;;5061502;28;46560;-60
2022/05/14 13:13:01;;;;;;;6.03;2.50;;;23.50;25.30;;;;;;5071694;27;46513;-62
2022/05/14 13:15:39;;;;;;;6.93;2.70;;;23.60;25.40;;;;;;5075156;28;46439;-62